KBNL/BNL METAR and TAF weather

Enter ICAO airport designator
Station Type Date Time Source
KBNL METAR 2018/04/19 13:15 UTC NOAA

KBNL 191315Z AUTO 23012G20KT 10SM SCT019 21/16 A2994 RMK AO2


Station Type Date Time Source
KBNL Decoded METAR 2018/04/19 13:15 UTC NOAA

Station name not available
Apr 19, 2018 - 09:15 AM EDT / 2018.04.19 1315 UTC
Wind: from the SW (230 degrees) at 14 MPH (12 KT) gusting to 23 MPH (20 KT):0
Visibility: 10 mile(s):0
Sky conditions: partly cloudy
Temperature: 69 F (21 C)
Dew Point: 60 F (16 C)
Relative Humidity: 73%
Pressure (altimeter): 29.94 in. Hg (1013 hPa)
ob: KBNL 191315Z AUTO 23012G20KT 10SM SCT019 21/16 A2994 RMK AO2
cycle: 13

Station Type Date Time Source
KBNL TAF UTC NOAA

Error!


Example: see airport list